createdAt,value
2018-05-11T00:01:12.986Z,59.89
2018-05-11T00:06:15.032Z,60.01
2018-05-11T00:11:16.367Z,60.31
2018-05-11T00:16:17.694Z,60.88
2018-05-11T00:21:19.007Z,61.79
2018-05-11T00:26:20.311Z,62.54
2018-05-11T00:31:21.616Z,63.95
2018-05-11T00:36:22.930Z,64.53
2018-05-11T00:41:24.984Z,65.05
2018-05-11T00:46:26.302Z,65.32
2018-05-11T00:51:27.619Z,65.53
2018-05-11T00:56:29.658Z,65.73
2018-05-11T01:01:31.118Z,66.10
2018-05-11T01:06:33.177Z,65.98
2018-05-11T01:11:34.498Z,65.53
2018-05-11T01:16:35.814Z,65.10
2018-05-11T01:21:37.861Z,64.41
2018-05-11T01:26:39.193Z,64.21
2018-05-11T01:31:41.254Z,64.00
2018-05-11T01:36:42.573Z,64.29
2018-05-11T01:41:43.889Z,64.12
2018-05-11T01:46:45.942Z,64.28
2018-05-11T01:51:47.270Z,64.06
2018-05-11T01:56:49.383Z,63.93
2018-05-11T02:01:51.474Z,64.20
2018-05-11T02:06:52.806Z,64.31
2018-05-11T02:11:54.130Z,64.60
2018-05-11T02:16:55.449Z,64.24
2018-05-11T02:21:56.757Z,64.43
2018-05-11T02:26:58.807Z,64.90
2018-05-11T02:32:00.105Z,64.46
2018-05-11T02:37:01.411Z,64.67
2018-05-11T02:42:02.746Z,64.45
2018-05-11T02:47:04.097Z,64.62
2018-05-11T02:52:05.464Z,64.10
2018-05-11T02:57:06.798Z,64.13
2018-05-11T03:02:08.873Z,63.93
2018-05-11T03:07:10.186Z,63.96
2018-05-11T03:12:12.256Z,63.81
2018-05-11T03:17:13.566Z,63.92
2018-05-11T03:22:14.889Z,64.26
2018-05-11T03:27:16.226Z,64.06
2018-05-11T03:32:17.541Z,64.12
2018-05-11T03:37:18.873Z,63.76
2018-05-11T03:42:20.194Z,64.07
2018-05-11T03:47:21.502Z,64.11
2018-05-11T03:52:22.826Z,64.46
2018-05-11T03:57:24.145Z,64.86
2018-05-11T04:02:43.957Z,65.51
2018-05-11T04:08:03.842Z,65.74
2018-05-11T04:13:05.967Z,64.93
2018-05-11T04:18:08.043Z,64.13
2018-05-11T04:23:09.348Z,63.72
2018-05-11T04:28:11.398Z,62.81
2018-05-11T04:33:12.705Z,62.85
2018-05-11T04:38:13.993Z,63.13
2018-05-11T04:43:15.309Z,62.82
2018-05-11T04:48:16.606Z,62.75
2018-05-11T04:53:18.668Z,63.40
2018-05-11T04:58:20.001Z,62.19
2018-05-11T05:03:21.334Z,62.33
2018-05-11T05:08:22.656Z,62.13
2018-05-11T05:13:23.962Z,62.14
2018-05-11T05:18:25.270Z,61.51
2018-05-11T05:23:27.386Z,61.37
2018-05-11T05:28:29.482Z,61.07
2018-05-11T05:33:31.613Z,61.06
2018-05-11T05:38:32.923Z,60.96
2018-05-11T05:43:34.753Z,61.55
2018-05-11T05:48:36.102Z,61.15
2018-05-11T05:53:37.454Z,60.82
2018-05-11T05:58:39.518Z,60.74
2018-05-11T06:03:44.292Z,59.96
2018-05-11T06:08:45.719Z,59.94
2018-05-11T06:13:47.018Z,59.76
2018-05-11T06:18:49.088Z,59.50
2018-05-11T06:23:50.523Z,59.53
2018-05-11T06:28:52.637Z,59.20
2018-05-11T06:33:54.689Z,58.99
2018-05-11T06:38:56.043Z,58.15
2018-05-11T06:43:58.485Z,56.52
2018-05-11T06:48:59.835Z,55.38
2018-05-11T06:54:01.898Z,55.63
2018-05-11T06:59:03.295Z,54.64
2018-05-11T07:04:04.602Z,53.69
2018-05-11T07:09:05.908Z,52.96
2018-05-11T07:14:07.972Z,52.93
2018-05-11T07:19:09.310Z,52.10
2018-05-11T07:24:11.378Z,51.95
2018-05-11T07:29:12.734Z,50.60
2018-05-11T07:34:14.081Z,49.49
2018-05-11T07:39:15.423Z,48.57
2018-05-11T07:44:16.757Z,49.47
2018-05-11T07:49:18.126Z,48.13
2018-05-11T07:54:19.461Z,47.63
2018-05-11T07:59:20.785Z,47.79
2018-05-11T08:04:22.255Z,46.86
2018-05-11T08:09:23.647Z,47.42
2018-05-11T08:14:25.038Z,48.50
2018-05-11T08:19:26.578Z,49.99
2018-05-11T08:24:27.983Z,49.84
2018-05-11T08:29:29.324Z,49.11
2018-05-11T08:34:30.663Z,48.18
2018-05-11T08:39:31.975Z,46.51
2018-05-11T08:44:34.147Z,45.36
2018-05-11T08:49:36.241Z,45.81
2018-05-11T08:54:37.566Z,45.52
2018-05-11T08:59:38.918Z,45.58
2018-05-11T09:04:40.342Z,44.05
2018-05-11T09:09:42.422Z,43.01
2018-05-11T09:14:44.225Z,43.97
2018-05-11T09:19:46.342Z,44.63
2018-05-11T09:24:49.721Z,43.62
2018-05-11T09:29:51.065Z,42.07
2018-05-11T09:34:52.654Z,42.45
2018-05-11T09:39:55.066Z,42.47
2018-05-11T09:44:58.271Z,40.98
2018-05-11T09:49:59.893Z,39.11
2018-05-11T09:55:01.913Z,38.38
2018-05-11T10:00:03.255Z,39.65
2018-05-11T10:05:04.575Z,38.79
2018-05-11T10:10:06.224Z,39.33
2018-05-11T10:15:08.646Z,39.17
2018-05-11T10:20:10.374Z,38.84
2018-05-11T10:25:11.779Z,39.19
2018-05-11T10:30:13.111Z,39.31
2018-05-11T10:35:15.274Z,38.77
2018-05-11T10:40:16.615Z,40.15
2018-05-11T10:45:18.733Z,41.79
2018-05-11T10:50:20.823Z,39.14
2018-05-11T10:55:22.906Z,36.71
2018-05-11T11:00:24.251Z,35.27
2018-05-11T11:05:25.590Z,36.51
2018-05-11T11:10:27.019Z,38.61
2018-05-11T11:15:29.085Z,38.93
2018-05-11T11:20:30.516Z,38.23
2018-05-11T11:25:32.096Z,37.48
2018-05-11T11:30:34.177Z,35.75
2018-05-11T11:35:35.582Z,35.52
2018-05-11T11:40:36.955Z,35.40
2018-05-11T11:45:38.403Z,35.01
2018-05-11T11:50:39.808Z,33.86
2018-05-11T11:55:41.206Z,33.11
2018-05-11T12:00:42.554Z,33.23
2018-05-11T12:05:44.954Z,33.18
2018-05-11T12:10:47.019Z,34.14
2018-05-11T12:15:49.463Z,34.34
2018-05-11T12:20:51.566Z,33.05
2018-05-11T12:25:52.955Z,34.41
2018-05-11T12:30:54.307Z,35.04
2018-05-11T12:35:55.646Z,33.76
2018-05-11T12:40:57.772Z,33.87
2018-05-11T12:45:59.880Z,33.90
2018-05-11T12:51:02.040Z,35.68
2018-05-11T12:56:03.412Z,37.32
2018-05-11T13:01:04.788Z,37.43
2018-05-11T13:06:06.116Z,38.46
2018-05-11T13:11:07.468Z,38.46
2018-05-11T13:16:08.833Z,37.51
2018-05-11T13:21:10.942Z,36.58
2018-05-11T13:26:13.130Z,35.61
2018-05-11T13:31:14.536Z,35.83
2018-05-11T13:36:15.995Z,35.29
2018-05-11T13:41:18.003Z,34.38
2018-05-11T13:46:19.336Z,34.22
2018-05-11T13:51:20.711Z,34.88
2018-05-11T13:56:22.796Z,34.81
2018-05-11T14:01:24.165Z,33.67
2018-05-11T14:06:25.517Z,33.35
2018-05-11T14:11:26.844Z,35.13
2018-05-11T14:16:28.154Z,36.05
2018-05-11T14:21:29.463Z,34.51
2018-05-11T14:26:31.565Z,35.71
2018-05-11T14:31:32.887Z,37.58
2018-05-11T14:36:34.232Z,37.17
2018-05-11T14:41:35.591Z,35.24
2018-05-11T14:46:36.931Z,34.87
2018-05-11T14:51:39.363Z,35.03
2018-05-11T14:56:40.802Z,35.47
2018-05-11T15:01:42.137Z,35.11
2018-05-11T15:06:44.305Z,37.95
2018-05-11T15:11:45.653Z,37.33
2018-05-11T15:16:47.012Z,37.01
2018-05-11T15:21:48.350Z,37.85
2018-05-11T15:26:49.670Z,37.94
2018-05-11T15:31:51.082Z,38.54
2018-05-11T15:36:52.386Z,38.42
2018-05-11T15:41:54.478Z,39.02
2018-05-11T15:46:55.831Z,39.35
2018-05-11T15:51:57.166Z,38.38
2018-05-11T15:56:58.490Z,39.33
2018-05-11T16:02:00.621Z,39.51
2018-05-11T16:07:02.072Z,38.83
2018-05-11T16:12:03.452Z,37.12
2018-05-11T16:17:04.826Z,38.15
2018-05-11T16:22:06.142Z,36.75
2018-05-11T16:27:08.247Z,35.18
2018-05-11T16:32:11.854Z,34.79
2018-05-11T16:37:13.206Z,35.51
2018-05-11T16:42:14.709Z,35.84
2018-05-11T16:47:16.114Z,35.99
2018-05-11T16:52:17.462Z,35.73
2018-05-11T16:57:19.571Z,37.44
2018-05-11T17:02:21.653Z,37.67
2018-05-11T17:07:23.198Z,37.74
2018-05-11T17:12:24.687Z,38.36
2018-05-11T17:17:26.051Z,38.61
2018-05-11T17:22:27.444Z,39.18
2018-05-11T17:27:28.842Z,40.10
2018-05-11T17:32:30.209Z,40.29
2018-05-11T17:37:31.553Z,40.56
2018-05-11T17:42:33.612Z,41.19
2018-05-11T17:47:34.976Z,41.19
2018-05-11T17:52:36.308Z,41.25
2018-05-11T17:57:38.233Z,41.94
2018-05-11T18:02:39.599Z,41.94
2018-05-11T18:07:41.093Z,42.08
2018-05-11T18:12:42.655Z,42.63
2018-05-11T18:17:44.248Z,43.13
2018-05-11T18:22:45.652Z,42.72
2018-05-11T18:27:48.422Z,43.12
2018-05-11T18:32:50.143Z,43.65
2018-05-11T18:37:51.902Z,43.93
2018-05-11T18:42:54.119Z,44.21
2018-05-11T18:47:55.758Z,44.75
2018-05-11T18:52:57.419Z,44.85
2018-05-11T18:57:59.527Z,44.92
2018-05-11T19:03:01.643Z,45.57
2018-05-11T19:08:03.772Z,45.81
2018-05-11T19:13:05.177Z,46.33
2018-05-11T19:18:06.527Z,46.85
2018-05-11T19:23:07.922Z,46.91
2018-05-11T19:28:10.545Z,46.98
2018-05-11T19:33:11.969Z,47.79
2018-05-11T19:38:13.372Z,47.99
2018-05-11T19:43:14.741Z,48.33
2018-05-11T19:48:16.105Z,48.25
2018-05-11T19:53:19.239Z,48.01
2018-05-11T19:58:21.463Z,48.01
2018-05-11T20:03:22.902Z,48.46
2018-05-11T20:08:24.275Z,48.88
2018-05-11T20:13:25.642Z,48.72
2018-05-11T20:18:27.537Z,49.29
2018-05-11T20:23:28.916Z,49.87
2018-05-11T20:28:31.030Z,50.00
2018-05-11T20:33:32.568Z,50.72
2018-05-11T20:38:34.907Z,50.56
2018-05-11T20:43:36.301Z,50.33
2018-05-11T20:48:37.674Z,50.08
2018-05-11T20:53:39.006Z,49.58
2018-05-11T20:58:41.741Z,49.72
2018-05-11T21:03:43.130Z,50.48
2018-05-11T21:08:44.552Z,51.15
2018-05-11T21:13:45.933Z,50.93
2018-05-11T21:18:47.331Z,51.12
2018-05-11T21:23:48.697Z,51.53
2018-05-11T21:28:50.149Z,51.10
2018-05-11T21:33:51.592Z,51.78
2018-05-11T21:38:52.984Z,52.27
2018-05-11T21:43:54.346Z,52.64
2018-05-11T21:48:56.479Z,52.85
2018-05-11T21:53:57.835Z,53.18
2018-05-11T21:58:59.200Z,54.06
2018-05-11T22:04:01.555Z,54.57
2018-05-11T22:09:03.023Z,54.40
2018-05-11T22:14:05.869Z,54.72
2018-05-11T22:19:07.231Z,54.02
2018-05-11T22:24:09.947Z,53.86
2018-05-11T22:29:11.393Z,53.45
2018-05-11T22:34:12.758Z,54.21
2018-05-11T22:39:14.128Z,54.86
2018-05-11T22:44:15.487Z,54.79
2018-05-11T22:49:16.933Z,54.43
2018-05-11T22:54:19.047Z,53.90
2018-05-11T22:59:20.362Z,53.59
2018-05-11T23:04:21.726Z,53.52
2018-05-11T23:09:23.137Z,54.38
2018-05-11T23:14:24.498Z,54.34
2018-05-11T23:19:26.565Z,54.77
2018-05-11T23:24:28.141Z,54.00
2018-05-11T23:29:31.556Z,53.75
2018-05-11T23:34:32.903Z,54.26
2018-05-11T23:39:34.225Z,54.47
2018-05-11T23:44:36.296Z,54.41
2018-05-11T23:49:37.666Z,54.04
2018-05-11T23:54:38.974Z,54.97
2018-05-11T23:59:40.306Z,55.27
